createdAt,value
2018-09-10T00:00:08.833Z,83
2018-09-10T00:05:12.355Z,82.4
2018-09-10T00:10:09.637Z,83.8
2018-09-10T00:15:18.594Z,84.3
2018-09-10T00:20:32.753Z,85.1
2018-09-10T00:25:13.148Z,84.9
2018-09-10T00:30:09.631Z,85.6
2018-09-10T00:35:11.357Z,85
2018-09-10T00:40:08.603Z,86.1
2018-09-10T00:45:10.133Z,85.6
2018-09-10T00:50:11.427Z,86.6
2018-09-10T00:55:10.560Z,87.3
2018-09-10T01:00:15.251Z,87.9
2018-09-10T01:05:49.870Z,89.3
2018-09-10T01:10:09.091Z,89
2018-09-10T01:15:09.003Z,88.8
2018-09-10T01:20:12.463Z,88.6
2018-09-10T01:25:08.822Z,89.7
2018-09-10T01:30:08.676Z,90.8
2018-09-10T01:36:01.487Z,90.7
2018-09-10T01:40:09.572Z,92.1
2018-09-10T01:45:09.562Z,92.4
2018-09-10T01:50:27.936Z,91.8
2018-09-10T01:55:09.038Z,91.7
2018-09-10T02:00:09.397Z,92.9
2018-09-10T02:05:09.248Z,91.9
2018-09-10T02:11:35.376Z,91
2018-09-10T02:15:09.993Z,92.3
2018-09-10T02:20:09.694Z,92.6
2018-09-10T02:25:08.913Z,93
2018-09-10T02:30:09.221Z,94.2
2018-09-10T02:35:09.138Z,96.2
2018-09-10T02:40:09.253Z,96
2018-09-10T02:45:09.432Z,95.5
2018-09-10T02:50:12.474Z,94.7
2018-09-10T02:55:09.285Z,95.5
2018-09-10T03:00:09.741Z,96.6
2018-09-10T03:05:09.181Z,95.1
2018-09-10T03:10:08.746Z,95.8
2018-09-10T03:15:09.208Z,96.2
2018-09-10T03:20:09.200Z,96.3
2018-09-10T03:25:09.383Z,96.2
2018-09-10T03:30:10.717Z,96.3
2018-09-10T03:35:09.497Z,95.6
2018-09-10T03:40:09.264Z,94.5
2018-09-10T03:45:08.886Z,96
2018-09-10T03:50:08.562Z,96.2
2018-09-10T03:55:09.930Z,98.2
2018-09-10T04:00:10.153Z,97.1
2018-09-10T04:05:08.824Z,97.4
2018-09-10T04:10:09.665Z,96.9
2018-09-10T04:15:08.647Z,95.8
2018-09-10T04:20:08.805Z,97.2
2018-09-10T04:25:12.183Z,97.1
2018-09-10T04:31:08.722Z,98
2018-09-10T04:35:12.343Z,97.7
2018-09-10T04:40:10.158Z,98.1
2018-09-10T04:45:19.397Z,98.7
2018-09-10T04:50:08.605Z,97.2
2018-09-10T04:55:17.167Z,97.1
2018-09-10T05:00:33.156Z,97.4
2018-09-10T05:05:12.971Z,98.8
2018-09-10T05:12:33.118Z,97.6
2018-09-10T05:15:09.465Z,97.9
2018-09-10T05:20:17.214Z,97.8
2018-09-10T05:25:53.692Z,97.4
2018-09-10T05:30:10.439Z,98
2018-09-10T05:35:12.754Z,98.6
2018-09-10T05:42:19.049Z,96.9
2018-09-10T05:45:09.071Z,97.2
2018-09-10T05:50:10.128Z,97
2018-09-10T05:55:19.371Z,97.6
2018-09-10T06:00:42.729Z,96.9
2018-09-10T06:05:09.611Z,97
2018-09-10T06:10:08.988Z,97.1
2018-09-10T06:15:10.470Z,98
2018-09-10T06:20:09.142Z,97.9
2018-09-10T06:25:10.394Z,98
2018-09-10T06:30:11.197Z,98.7
2018-09-10T06:35:08.281Z,97.8
2018-09-10T06:40:10.476Z,96.2
2018-09-10T06:45:42.941Z,96.4
2018-09-10T06:50:18.340Z,95.4
2018-09-10T06:55:08.746Z,94.9
2018-09-10T07:00:23.612Z,96
2018-09-10T07:05:09.513Z,95.5
2018-09-10T07:10:12.354Z,94
2018-09-10T07:15:28.250Z,93.7
2018-09-10T07:20:11.999Z,92.1
2018-09-10T07:25:10.467Z,90.6
2018-09-10T07:30:20.600Z,88.7
2018-09-10T07:35:10.344Z,86.8
2018-09-10T07:40:09.617Z,84
2018-09-10T07:46:09.719Z,82.2
2018-09-10T07:50:10.314Z,80.8
2018-09-10T07:55:10.329Z,78.9
2018-09-10T08:00:32.050Z,76.7
2018-09-10T08:07:17.014Z,76
2018-09-10T08:10:09.374Z,74.7
2018-09-10T08:15:37.283Z,74.3
2018-09-10T08:21:35.275Z,74.3
2018-09-10T08:25:09.634Z,72.9
2018-09-10T08:30:09.435Z,73.7
2018-09-10T08:35:08.219Z,73
2018-09-10T08:40:09.207Z,71.4
2018-09-10T08:45:12.313Z,71.7
2018-09-10T08:50:08.805Z,71.3
2018-09-10T08:55:08.297Z,70.2
2018-09-10T09:00:22.842Z,70.7
2018-09-10T09:05:07.961Z,70.3
2018-09-10T09:10:09.024Z,71.2
2018-09-10T09:15:24.058Z,68.2
2018-09-10T09:20:08.237Z,66.1
2018-09-10T09:25:10.094Z,65.1
2018-09-10T09:30:20.642Z,64.8
2018-09-10T09:35:07.744Z,65.4
2018-09-10T09:40:10.075Z,65.5
2018-09-10T09:45:58.571Z,65.7
2018-09-10T09:50:21.401Z,66.3
2018-09-10T09:55:09.073Z,66.8
2018-09-10T10:03:32.643Z,65.7
2018-09-10T10:05:08.572Z,65
2018-09-10T10:10:10.126Z,62.9
2018-09-10T10:15:13.873Z,62.2
2018-09-10T10:20:08.710Z,61.8
2018-09-10T10:25:09.627Z,62
2018-09-10T10:30:24.823Z,61.8
2018-09-10T10:35:08.318Z,62.1
2018-09-10T10:40:18.643Z,62.6
2018-09-10T10:45:15.960Z,62.8
2018-09-10T10:50:08.600Z,63.1
2018-09-10T10:55:07.875Z,63.3
2018-09-10T11:00:22.979Z,62.1
2018-09-10T11:05:12.529Z,62.9
2018-09-10T11:10:08.074Z,63.3
2018-09-10T11:15:25.451Z,63.5
2018-09-10T11:20:07.980Z,64.5
2018-09-10T11:25:10.532Z,65.2
2018-09-10T11:30:49.618Z,64.8
2018-09-10T11:35:08.786Z,65.3
2018-09-10T11:40:09.059Z,64.9
2018-09-10T11:45:56.433Z,63
2018-09-10T11:50:14.447Z,61.7
2018-09-10T11:55:07.739Z,60.9
2018-09-10T12:00:52.510Z,61.1
2018-09-10T12:05:12.488Z,61.4
2018-09-10T12:10:21.291Z,61.2
2018-09-10T12:15:12.483Z,62.1
2018-09-10T12:22:32.925Z,62.5
2018-09-10T12:25:08.400Z,63.8
2018-09-10T12:30:30.542Z,63.1
2018-09-10T12:35:13.971Z,64
2018-09-10T12:40:13.632Z,63.3
2018-09-10T12:45:08.899Z,62.2
2018-09-10T12:50:11.344Z,63.8
2018-09-10T12:55:08.144Z,62.1
2018-09-10T13:00:08.152Z,62.4
2018-09-10T13:05:36.332Z,62.4
2018-09-10T13:10:08.292Z,62.6
2018-09-10T13:15:09.345Z,61.9
2018-09-10T13:20:08.732Z,61.9
2018-09-10T13:25:08.865Z,61
2018-09-10T13:30:09.792Z,60.9
2018-09-10T13:45:18.516Z,61.4
2018-09-10T13:50:11.489Z,60.9
2018-09-10T13:55:11.676Z,60.7
2018-09-10T14:00:11.869Z,61.5
2018-09-10T14:05:11.600Z,61.9
2018-09-10T14:10:11.484Z,60.1
2018-09-10T14:15:11.866Z,60.7
2018-09-10T14:20:11.616Z,60.9
2018-09-10T14:25:11.998Z,61.9
2018-09-10T14:30:11.605Z,61.6
2018-09-10T14:35:12.160Z,63.1
2018-09-10T14:40:11.525Z,62.7
2018-09-10T14:45:11.853Z,62.4
2018-09-10T14:50:13.682Z,62.7
2018-09-10T14:55:11.798Z,63.5
2018-09-10T15:00:11.528Z,63.1
2018-09-10T15:05:13.920Z,63.3
2018-09-10T15:10:11.433Z,62.2
2018-09-10T15:15:11.438Z,62.1
2018-09-10T15:20:12.054Z,62
2018-09-10T15:25:11.610Z,61.9
2018-09-10T15:30:11.663Z,60.6
2018-09-10T15:35:11.877Z,61.3
2018-09-10T15:40:11.590Z,60.8
2018-09-10T15:45:11.569Z,61.4
2018-09-10T15:50:12.546Z,62.2
2018-09-10T15:55:11.416Z,63.7
2018-09-10T16:00:11.707Z,63.1
2018-09-10T16:05:12.574Z,63.3
2018-09-10T16:10:11.595Z,63.8
2018-09-10T16:15:11.523Z,63.7
2018-09-10T16:20:11.575Z,64.7
2018-09-10T16:25:11.731Z,65.6
2018-09-10T16:30:11.406Z,65.3
2018-09-10T16:35:12.030Z,66.1
2018-09-10T16:40:11.205Z,66.1
2018-09-10T16:45:11.546Z,67.3
2018-09-10T16:50:11.703Z,67.2
2018-09-10T16:55:11.525Z,67.9
2018-09-10T17:00:11.795Z,68
2018-09-10T17:05:11.368Z,68.4
2018-09-10T17:10:11.508Z,68.5
2018-09-10T17:15:11.229Z,68.3
2018-09-10T17:20:11.712Z,68.6
2018-09-10T17:25:11.332Z,68.6
2018-09-10T17:30:11.277Z,69.2
2018-09-10T17:35:11.471Z,70.1
2018-09-10T17:40:11.288Z,69.9
2018-09-10T17:45:11.250Z,69.1
2018-09-10T17:50:11.570Z,68
2018-09-10T17:55:11.940Z,66.4
2018-09-10T18:00:11.496Z,66.7
2018-09-10T18:05:11.421Z,66.6
2018-09-10T18:10:11.418Z,66.6
2018-09-10T18:15:11.237Z,67.4
2018-09-10T18:20:11.431Z,67.9
2018-09-10T18:25:11.385Z,68.5
2018-09-10T18:30:11.204Z,69.2
2018-09-10T18:35:11.337Z,69.6
2018-09-10T18:40:11.779Z,71.9
2018-09-10T18:45:13.686Z,72.7
2018-09-10T18:50:11.637Z,72.3
2018-09-10T18:55:11.377Z,72.8
2018-09-10T19:00:12.346Z,72.9
2018-09-10T19:05:11.486Z,73.1
2018-09-10T19:10:11.494Z,73.6
2018-09-10T19:15:13.572Z,72.5
2018-09-10T19:20:11.240Z,71.7
2018-09-10T19:25:11.521Z,73
2018-09-10T19:30:13.097Z,72.6
2018-09-10T19:35:11.499Z,73.1
2018-09-10T19:40:12.432Z,73.3
2018-09-10T19:45:16.810Z,74.5
2018-09-10T19:50:11.205Z,75.1
2018-09-10T19:55:11.228Z,75.1
2018-09-10T20:00:11.926Z,75.3
2018-09-10T20:05:11.155Z,76.4
2018-09-10T20:10:11.531Z,76.9
2018-09-10T20:15:11.580Z,77.1
2018-09-10T20:20:13.006Z,78.4
2018-09-10T20:25:11.883Z,78.3
2018-09-10T20:30:34.516Z,79.7
2018-09-10T20:35:20.775Z,80.2
2018-09-10T20:40:13.048Z,81.3
2018-09-10T20:45:43.115Z,80.1
2018-09-10T20:50:12.980Z,81.7
2018-09-10T20:55:12.880Z,82.5
2018-09-10T21:00:17.538Z,82.2
2018-09-10T21:05:11.484Z,81.8
2018-09-10T21:10:12.098Z,82.9
2018-09-10T21:15:16.455Z,82.9
2018-09-10T21:20:16.871Z,82.7
2018-09-10T21:25:17.073Z,82.8
2018-09-10T21:30:11.224Z,82.5
2018-09-10T21:35:15.325Z,82.9
2018-09-10T21:40:11.631Z,82.8
2018-09-10T21:45:11.644Z,82.8
2018-09-10T21:50:12.970Z,82.8
2018-09-10T21:55:11.002Z,82.3
2018-09-10T22:00:11.363Z,82.1
2018-09-10T22:05:11.339Z,82.4
2018-09-10T22:10:13.214Z,82.9
2018-09-10T22:15:11.664Z,83
2018-09-10T22:20:15.944Z,82.6
2018-09-10T22:25:11.166Z,82.8
2018-09-10T22:30:27.559Z,82.9
2018-09-10T22:35:10.930Z,81.9
2018-09-10T22:40:14.742Z,82.3
2018-09-10T22:45:12.300Z,84.1
2018-09-10T22:50:14.909Z,83.7
2018-09-10T22:55:12.147Z,83.7
2018-09-10T23:00:19.918Z,84.1
2018-09-10T23:05:10.868Z,83.5
2018-09-10T23:10:12.365Z,83.6
2018-09-10T23:15:11.429Z,83.1
2018-09-10T23:20:13.177Z,83.7
2018-09-10T23:25:11.809Z,84
2018-09-10T23:30:11.120Z,84.4
2018-09-10T23:35:16.999Z,84.9
2018-09-10T23:40:16.021Z,84
2018-09-10T23:45:11.922Z,85.2
2018-09-10T23:50:14.042Z,85.4
2018-09-10T23:55:10.992Z,85.8
